createdAt,value
2018-07-15T00:00:23.127Z,1013.62
2018-07-15T00:01:23.112Z,1013.61
2018-07-15T00:02:23.099Z,1013.60
2018-07-15T00:03:23.085Z,1013.62
2018-07-15T00:04:23.069Z,1013.60
2018-07-15T00:05:23.062Z,1013.60
2018-07-15T00:06:23.044Z,1013.59
2018-07-15T00:07:23.038Z,1013.61
2018-07-15T00:08:23.015Z,1013.62
2018-07-15T00:09:23.002Z,1013.63
2018-07-15T00:10:22.995Z,1013.65
2018-07-15T00:11:22.980Z,1013.68
2018-07-15T00:12:22.961Z,1013.64
2018-07-15T00:13:22.947Z,1013.63
2018-07-15T00:14:22.939Z,1013.64
2018-07-15T00:15:22.922Z,1013.64
2018-07-15T00:16:22.907Z,1013.65
2018-07-15T00:17:22.892Z,1013.61
2018-07-15T00:18:22.880Z,1013.66
2018-07-15T00:19:22.874Z,1013.64
2018-07-15T00:20:22.851Z,1013.63
2018-07-15T00:21:22.836Z,1013.64
2018-07-15T00:22:22.874Z,1013.61
2018-07-15T00:23:22.807Z,1013.59
2018-07-15T00:24:22.794Z,1013.60
2018-07-15T00:25:22.778Z,1013.61
2018-07-15T00:26:22.767Z,1013.59
2018-07-15T00:27:22.756Z,1013.59
2018-07-15T00:28:22.737Z,1013.58
2018-07-15T00:29:22.733Z,1013.55
2018-07-15T00:30:22.708Z,1013.57
2018-07-15T00:31:22.711Z,1013.58
2018-07-15T00:32:22.683Z,1013.60
2018-07-15T00:33:22.674Z,1013.54
2018-07-15T00:34:22.653Z,1013.56
2018-07-15T00:35:22.643Z,1013.57
2018-07-15T00:36:22.624Z,1013.56
2018-07-15T00:37:22.612Z,1013.55
2018-07-15T00:38:22.597Z,1013.54
2018-07-15T00:39:22.598Z,1013.54
2018-07-15T00:40:22.570Z,1013.58
2018-07-15T00:41:22.561Z,1013.53
2018-07-15T00:42:22.542Z,1013.57
2018-07-15T00:43:22.528Z,1013.60
2018-07-15T00:44:22.516Z,1013.58
2018-07-15T00:45:22.500Z,1013.57
2018-07-15T00:46:22.485Z,1013.57
2018-07-15T00:47:22.470Z,1013.60
2018-07-15T00:48:22.459Z,1013.64
2018-07-15T00:49:22.446Z,1013.60
2018-07-15T00:50:22.440Z,1013.60
2018-07-15T00:51:22.416Z,1013.61
2018-07-15T00:52:22.400Z,1013.59
2018-07-15T00:53:22.387Z,1013.59
2018-07-15T00:54:22.375Z,1013.60
2018-07-15T00:55:22.441Z,1013.63
2018-07-15T00:56:22.348Z,1013.65
2018-07-15T00:57:22.330Z,1013.62
2018-07-15T00:58:22.317Z,1013.59
2018-07-15T00:59:22.303Z,1013.57
2018-07-15T01:00:22.288Z,1013.54
2018-07-15T01:01:22.275Z,1013.57
2018-07-15T01:02:22.264Z,1013.53
2018-07-15T01:03:22.244Z,1013.52
2018-07-15T01:04:22.236Z,1013.56
2018-07-15T01:05:22.219Z,1013.56
2018-07-15T01:06:22.199Z,1013.56
2018-07-15T01:07:22.188Z,1013.55
2018-07-15T01:08:22.180Z,1013.56
2018-07-15T01:09:22.158Z,1013.59
2018-07-15T01:10:22.143Z,1013.61
2018-07-15T01:11:22.129Z,1013.61
2018-07-15T01:12:22.116Z,1013.56
2018-07-15T01:13:22.101Z,1013.58
2018-07-15T01:14:22.086Z,1013.58
2018-07-15T01:15:22.081Z,1013.53
2018-07-15T01:16:22.066Z,1013.48
2018-07-15T01:17:22.047Z,1013.51
2018-07-15T01:18:22.034Z,1013.48
2018-07-15T01:19:22.017Z,1013.48
2018-07-15T01:20:22.001Z,1013.48
2018-07-15T01:21:21.993Z,1013.47
2018-07-15T01:22:21.971Z,1013.49
2018-07-15T01:23:21.957Z,1013.46
2018-07-15T01:24:21.947Z,1013.43
2018-07-15T01:25:21.930Z,1013.43
2018-07-15T01:26:21.916Z,1013.43
2018-07-15T01:27:21.901Z,1013.45
2018-07-15T01:28:21.894Z,1013.47
2018-07-15T01:29:21.874Z,1013.42
2018-07-15T01:30:21.863Z,1013.44
2018-07-15T01:31:21.845Z,1013.39
2018-07-15T01:32:21.830Z,1013.43
2018-07-15T01:33:21.816Z,1013.40
2018-07-15T01:34:21.807Z,1013.42
2018-07-15T01:35:21.789Z,1013.47
2018-07-15T01:36:21.772Z,1013.38
2018-07-15T01:37:21.762Z,1013.43
2018-07-15T01:38:21.741Z,1013.39
2018-07-15T01:39:21.730Z,1013.39
2018-07-15T01:40:21.713Z,1013.44
2018-07-15T01:41:21.701Z,1013.40
2018-07-15T01:42:21.684Z,1013.40
2018-07-15T01:43:21.671Z,1013.40
2018-07-15T01:44:21.657Z,1013.40
2018-07-15T01:45:21.792Z,1013.42
2018-07-15T01:46:21.627Z,1013.36
2018-07-15T01:47:21.612Z,1013.43
2018-07-15T01:48:21.601Z,1013.38
2018-07-15T01:49:21.609Z,1013.38
2018-07-15T01:50:21.584Z,1013.42
2018-07-15T01:51:21.564Z,1013.41
2018-07-15T01:52:21.540Z,1013.37
2018-07-15T01:53:21.526Z,1013.45
2018-07-15T01:54:21.510Z,1013.44
2018-07-15T01:55:21.497Z,1013.43
2018-07-15T01:56:21.481Z,1013.41
2018-07-15T01:57:21.468Z,1013.40
2018-07-15T01:58:21.453Z,1013.38
2018-07-15T01:59:21.443Z,1013.37
2018-07-15T02:00:21.423Z,1013.35
2018-07-15T02:01:21.417Z,1013.37
2018-07-15T02:02:21.395Z,1013.37
2018-07-15T02:03:21.378Z,1013.40
2018-07-15T02:04:21.366Z,1013.38
2018-07-15T02:05:21.352Z,1013.37
2018-07-15T02:06:21.335Z,1013.38
2018-07-15T02:07:21.329Z,1013.38
2018-07-15T02:08:21.305Z,1013.36
2018-07-15T02:09:21.294Z,1013.38
2018-07-15T02:10:21.275Z,1013.41
2018-07-15T02:11:21.293Z,1013.42
2018-07-15T02:12:21.247Z,1013.40
2018-07-15T02:13:21.233Z,1013.42
2018-07-15T02:14:21.218Z,1013.39
2018-07-15T02:15:21.204Z,1013.40
2018-07-15T02:16:21.189Z,1013.38
2018-07-15T02:17:21.173Z,1013.40
2018-07-15T02:18:21.159Z,1013.38
2018-07-15T02:19:21.145Z,1013.38
2018-07-15T02:20:21.133Z,1013.37
2018-07-15T02:21:21.117Z,1013.39
2018-07-15T02:22:21.102Z,1013.39
2018-07-15T02:23:21.085Z,1013.40
2018-07-15T02:24:21.071Z,1013.37
2018-07-15T02:25:21.057Z,1013.38
2018-07-15T02:26:21.053Z,1013.36
2018-07-15T02:27:21.031Z,1013.37
2018-07-15T02:28:21.028Z,1013.34
2018-07-15T02:29:20.998Z,1013.34
2018-07-15T02:30:20.983Z,1013.32
2018-07-15T02:31:20.985Z,1013.34
2018-07-15T02:32:20.953Z,1013.36
2018-07-15T02:33:20.938Z,1013.32
2018-07-15T02:34:20.923Z,1013.32
2018-07-15T02:35:20.909Z,1013.33
2018-07-15T02:36:20.893Z,1013.31
2018-07-15T02:37:20.880Z,1013.30
2018-07-15T02:38:20.863Z,1013.30
2018-07-15T02:39:20.849Z,1013.31
2018-07-15T02:40:20.840Z,1013.37
2018-07-15T02:41:20.819Z,1013.30
2018-07-15T02:42:20.814Z,1013.36
2018-07-15T02:43:20.789Z,1013.31
2018-07-15T02:44:20.775Z,1013.28
2018-07-15T02:45:20.761Z,1013.35
2018-07-15T02:46:20.748Z,1013.32
2018-07-15T02:47:20.833Z,1013.32
2018-07-15T02:48:20.715Z,1013.33
2018-07-15T02:49:20.702Z,1013.32
2018-07-15T02:50:20.685Z,1013.28
2018-07-15T02:51:20.673Z,1013.32
2018-07-15T02:52:20.657Z,1013.29
2018-07-15T02:53:20.641Z,1013.29
2018-07-15T02:54:20.626Z,1013.28
2018-07-15T02:55:20.610Z,1013.26
2018-07-15T02:56:20.596Z,1013.26
2018-07-15T02:57:20.580Z,1013.27
2018-07-15T02:58:20.569Z,1013.27
2018-07-15T02:59:20.552Z,1013.25
2018-07-15T03:00:20.537Z,1013.30
2018-07-15T03:01:20.528Z,1013.28
2018-07-15T03:02:20.506Z,1013.31
2018-07-15T03:03:20.491Z,1013.22
2018-07-15T03:04:20.475Z,1013.23
2018-07-15T03:05:20.472Z,1013.22
2018-07-15T03:06:20.449Z,1013.19
2018-07-15T03:07:20.493Z,1013.17
2018-07-15T03:08:20.416Z,1013.16
2018-07-15T03:09:20.404Z,1013.13
2018-07-15T03:10:20.385Z,1013.13
2018-07-15T03:11:20.371Z,1013.13
2018-07-15T03:12:20.356Z,1013.12
2018-07-15T03:13:20.341Z,1013.12
2018-07-15T03:14:20.327Z,1013.12
2018-07-15T03:15:20.312Z,1013.10
2018-07-15T03:16:20.295Z,1013.09
2018-07-15T03:17:20.395Z,1013.09
2018-07-15T03:18:20.265Z,1013.12
2018-07-15T03:19:20.259Z,1013.13
2018-07-15T03:20:20.235Z,1013.12
2018-07-15T03:21:20.219Z,1013.09
2018-07-15T03:22:20.203Z,1013.09
2018-07-15T03:23:20.190Z,1013.05
2018-07-15T03:24:20.175Z,1013.06
2018-07-15T03:25:20.160Z,1013.01
2018-07-15T03:26:20.144Z,1013.05
2018-07-15T03:27:20.136Z,1013.03
2018-07-15T03:28:20.122Z,1013.06
2018-07-15T03:29:20.101Z,1013.10
2018-07-15T03:30:20.093Z,1013.05
2018-07-15T03:31:20.066Z,1013.06
2018-07-15T03:32:20.051Z,1013.02
2018-07-15T03:33:20.036Z,1013.09
2018-07-15T03:34:20.020Z,1013.07
2018-07-15T03:35:20.014Z,1013.06
2018-07-15T03:36:19.990Z,1013.05
2018-07-15T03:37:19.976Z,1013.08
2018-07-15T03:38:19.959Z,1013.01
2018-07-15T03:39:19.946Z,1013.01
2018-07-15T03:40:19.930Z,1013.02
2018-07-15T03:41:19.922Z,1013.01
2018-07-15T03:42:19.900Z,1013.00
2018-07-15T03:43:19.884Z,1013.00
2018-07-15T03:44:19.869Z,1013.01
2018-07-15T03:45:19.853Z,1013.01
2018-07-15T03:46:19.837Z,1013.00
2018-07-15T03:47:19.823Z,1013.04
2018-07-15T03:48:19.808Z,1013.06
2018-07-15T03:49:19.801Z,1013.02
2018-07-15T03:50:19.777Z,1013.03
2018-07-15T03:51:19.760Z,1013.01
2018-07-15T03:52:19.747Z,1012.98
2018-07-15T03:53:19.732Z,1012.98
2018-07-15T03:54:19.717Z,1013.01
2018-07-15T03:55:19.700Z,1013.01
2018-07-15T03:56:19.684Z,1013.02
2018-07-15T03:57:19.670Z,1013.03
2018-07-15T03:58:19.654Z,1013.04
2018-07-15T03:59:19.643Z,1013.03
2018-07-15T04:00:19.625Z,1013.04
2018-07-15T04:01:19.609Z,1013.02
2018-07-15T04:02:19.593Z,1013.01
2018-07-15T04:03:19.577Z,1013.03
2018-07-15T04:04:19.575Z,1013.05
2018-07-15T04:05:19.555Z,1013.08
2018-07-15T04:06:19.530Z,1013.11
2018-07-15T04:07:19.517Z,1013.06
2018-07-15T04:08:19.509Z,1013.09
2018-07-15T04:09:19.489Z,1013.12
2018-07-15T04:10:19.471Z,1013.06
2018-07-15T04:11:19.455Z,1013.09
2018-07-15T04:12:19.450Z,1013.11
2018-07-15T04:13:19.425Z,1013.09
2018-07-15T04:14:19.409Z,1013.10
2018-07-15T04:15:19.398Z,1013.07
2018-07-15T04:16:19.396Z,1013.08
2018-07-15T04:17:19.372Z,1013.09
2018-07-15T04:18:19.358Z,1013.08
2018-07-15T04:19:19.332Z,1013.04
2018-07-15T04:20:19.319Z,1013.03
2018-07-15T04:21:19.306Z,1013.03
2018-07-15T04:22:19.287Z,1013.10
2018-07-15T04:23:19.291Z,1013.05
2018-07-15T04:24:19.264Z,1013.07
2018-07-15T04:25:19.251Z,1013.06
2018-07-15T04:26:19.227Z,1013.06
2018-07-15T04:27:19.211Z,1013.09
2018-07-15T04:28:19.273Z,1013.06
2018-07-15T04:29:19.181Z,1013.01
2018-07-15T04:30:19.166Z,1013.05
2018-07-15T04:31:19.150Z,1013.02
2018-07-15T04:32:19.136Z,1013.02
2018-07-15T04:33:19.120Z,1013.03
2018-07-15T04:34:19.104Z,1013.00
2018-07-15T04:35:19.091Z,1013.04
2018-07-15T04:36:19.075Z,1013.01
2018-07-15T04:37:19.061Z,1013.04
2018-07-15T04:38:19.045Z,1013.06
2018-07-15T04:39:19.027Z,1013.07
2018-07-15T04:40:19.025Z,1013.07
2018-07-15T04:41:18.998Z,1013.09
2018-07-15T04:42:18.983Z,1013.05
2018-07-15T04:43:18.966Z,1013.03
2018-07-15T04:44:18.950Z,1013.05
2018-07-15T04:45:18.937Z,1013.03
2018-07-15T04:46:18.924Z,1013.05
2018-07-15T04:47:18.907Z,1013.04
2018-07-15T04:48:18.899Z,1013.05
2018-07-15T04:49:18.879Z,1013.05
2018-07-15T04:50:18.873Z,1013.05
2018-07-15T04:51:18.845Z,1013.01
2018-07-15T04:52:18.830Z,1013.07
2018-07-15T04:53:18.822Z,1013.03
2018-07-15T04:54:18.797Z,1013.00
2018-07-15T04:55:18.793Z,1013.06
2018-07-15T04:56:18.768Z,1013.00
2018-07-15T04:57:18.754Z,1013.00
2018-07-15T04:58:18.738Z,1013.00
2018-07-15T04:59:18.722Z,1012.98
2018-07-15T05:00:18.708Z,1013.02
2018-07-15T05:01:18.692Z,1013.02
2018-07-15T05:02:18.679Z,1012.99
2018-07-15T05:03:18.662Z,1012.98
2018-07-15T05:04:18.646Z,1012.98
2018-07-15T05:05:18.632Z,1012.99
2018-07-15T05:06:18.616Z,1012.97
2018-07-15T05:07:18.600Z,1013.00
2018-07-15T05:08:18.587Z,1012.98
2018-07-15T05:09:18.578Z,1012.95
2018-07-15T05:10:18.558Z,1012.95
2018-07-15T05:11:18.556Z,1012.98
2018-07-15T05:12:18.564Z,1012.96
2018-07-15T05:13:18.508Z,1012.87
2018-07-15T05:14:18.493Z,1012.94
2018-07-15T05:15:18.480Z,1012.90
2018-07-15T05:16:18.463Z,1012.95
2018-07-15T05:17:18.450Z,1012.95
2018-07-15T05:18:18.458Z,1012.97
2018-07-15T05:19:18.416Z,1013.01
2018-07-15T05:20:18.406Z,1013.05
2018-07-15T05:21:18.387Z,1013.06
2018-07-15T05:22:18.370Z,1013.09
2018-07-15T05:23:18.357Z,1013.03
2018-07-15T05:24:18.341Z,1013.03
2018-07-15T05:25:18.327Z,1013.08
2018-07-15T05:26:18.315Z,1013.07
2018-07-15T05:27:18.296Z,1013.06
2018-07-15T05:28:18.281Z,1013.07
2018-07-15T05:29:18.265Z,1013.10
2018-07-15T05:30:18.249Z,1013.08
2018-07-15T05:31:18.233Z,1013.08
2018-07-15T05:32:18.221Z,1013.05
2018-07-15T05:33:18.216Z,1013.11
2018-07-15T05:34:18.190Z,1013.08
2018-07-15T05:35:18.179Z,1013.11
2018-07-15T05:36:18.161Z,1013.12
2018-07-15T05:37:18.144Z,1013.12
2018-07-15T05:38:18.135Z,1013.09
2018-07-15T05:39:18.115Z,1013.11
2018-07-15T05:40:18.099Z,1013.13
2018-07-15T05:41:18.090Z,1013.14
2018-07-15T05:42:18.071Z,1013.28
2018-07-15T05:43:18.063Z,1013.85
2018-07-15T05:44:18.099Z,1014.40
2018-07-15T05:45:18.024Z,1014.70
2018-07-15T05:46:18.012Z,1014.88
2018-07-15T05:47:17.996Z,1015.07
2018-07-15T05:48:17.980Z,1015.03
2018-07-15T05:49:17.973Z,1015.13
2018-07-15T05:50:17.952Z,1015.23
2018-07-15T05:51:17.940Z,1014.96
2018-07-15T05:52:18.131Z,1014.87
2018-07-15T05:53:17.915Z,1014.92
2018-07-15T05:54:17.901Z,1014.87
2018-07-15T05:55:17.901Z,1014.71
2018-07-15T05:56:17.878Z,1014.53
2018-07-15T05:57:17.876Z,1014.41
2018-07-15T05:58:17.857Z,1014.37
2018-07-15T05:59:17.849Z,1014.30
2018-07-15T06:00:17.835Z,1014.29
2018-07-15T06:01:17.823Z,1014.31
2018-07-15T06:02:17.810Z,1014.25
2018-07-15T06:03:17.806Z,1014.25
2018-07-15T06:04:17.801Z,1014.24
2018-07-15T06:05:17.785Z,1014.25
2018-07-15T06:06:17.775Z,1014.26
2018-07-15T06:07:17.769Z,1014.20
2018-07-15T06:08:17.759Z,1014.20
2018-07-15T06:09:17.758Z,1014.25
2018-07-15T06:10:17.744Z,1014.21
2018-07-15T06:11:17.738Z,1014.23
2018-07-15T06:12:17.732Z,1014.25
2018-07-15T06:13:17.739Z,1014.26
2018-07-15T06:14:17.721Z,1014.27
2018-07-15T06:15:17.719Z,1014.29
2018-07-15T06:16:17.705Z,1014.31
2018-07-15T06:17:17.714Z,1014.34
2018-07-15T06:18:17.692Z,1014.30
2018-07-15T06:19:17.685Z,1014.19
2018-07-15T06:20:17.694Z,1014.21
2018-07-15T06:21:17.683Z,1014.19
2018-07-15T06:22:17.670Z,1014.16
2018-07-15T06:23:17.666Z,1014.18
2018-07-15T06:24:17.659Z,1014.16
2018-07-15T06:25:17.658Z,1014.13
2018-07-15T06:26:17.653Z,1014.08
2018-07-15T06:27:17.650Z,1014.07
2018-07-15T06:28:17.639Z,1014.07
2018-07-15T06:29:17.636Z,1014.05
2018-07-15T06:30:17.628Z,1014.04
2018-07-15T06:31:17.625Z,1014.06
2018-07-15T06:32:17.620Z,1013.95
2018-07-15T06:33:17.617Z,1013.97
2018-07-15T06:34:17.613Z,1014.02
2018-07-15T06:35:17.617Z,1013.89
2018-07-15T06:36:17.617Z,1013.90
2018-07-15T06:37:17.607Z,1013.90
2018-07-15T06:38:17.700Z,1013.91
2018-07-15T06:39:17.605Z,1013.95
2018-07-15T06:40:17.597Z,1013.90
2018-07-15T06:41:17.591Z,1013.89
2018-07-15T06:42:17.593Z,1013.86
2018-07-15T06:43:17.584Z,1013.87
2018-07-15T06:44:17.582Z,1013.83
2018-07-15T06:45:17.581Z,1013.84
2018-07-15T06:46:17.577Z,1013.84
2018-07-15T06:47:17.573Z,1013.82
2018-07-15T06:48:17.575Z,1013.79
2018-07-15T06:49:17.582Z,1013.80
2018-07-15T06:50:17.570Z,1013.78
2018-07-15T06:51:17.569Z,1013.79
2018-07-15T06:52:17.567Z,1013.80
2018-07-15T06:53:17.619Z,1013.76
2018-07-15T06:54:17.573Z,1013.79
2018-07-15T06:55:17.788Z,1013.74
2018-07-15T06:56:17.572Z,1013.76
2018-07-15T06:57:17.568Z,1013.77
2018-07-15T06:58:17.570Z,1013.74
2018-07-15T06:59:17.561Z,1013.73
2018-07-15T07:00:17.573Z,1013.73
2018-07-15T07:01:17.560Z,1013.72
2018-07-15T07:02:17.566Z,1013.75
2018-07-15T07:03:17.564Z,1013.78
2018-07-15T07:04:17.566Z,1013.74
2018-07-15T07:05:17.569Z,1013.75
2018-07-15T07:06:17.564Z,1013.69
2018-07-15T07:07:17.663Z,1013.61
2018-07-15T07:08:17.564Z,1013.81
2018-07-15T07:09:17.567Z,1013.84
2018-07-15T07:10:17.566Z,1013.41
2018-07-15T07:11:17.572Z,1013.52
2018-07-15T07:12:17.575Z,1013.59
2018-07-15T07:13:17.564Z,1013.80
2018-07-15T07:14:17.626Z,1013.60
2018-07-15T07:15:17.568Z,1013.64
2018-07-15T07:16:17.581Z,1013.61
2018-07-15T07:17:17.597Z,1013.78
2018-07-15T07:18:17.566Z,1013.88
2018-07-15T07:19:17.576Z,1013.89
2018-07-15T07:20:17.573Z,1013.89
2018-07-15T07:21:17.734Z,1013.89
2018-07-15T07:22:17.569Z,1013.87
2018-07-15T07:23:17.580Z,1013.85
2018-07-15T07:24:17.573Z,1013.86
2018-07-15T07:25:17.583Z,1013.83
2018-07-15T07:26:17.569Z,1013.86
2018-07-15T07:27:17.567Z,1013.86
2018-07-15T07:28:17.688Z,1013.88
2018-07-15T07:29:17.566Z,1013.92
2018-07-15T07:30:17.578Z,1013.59
2018-07-15T07:31:17.568Z,1013.57
2018-07-15T07:32:17.579Z,1013.58
2018-07-15T07:33:17.570Z,1013.56
2018-07-15T07:34:17.570Z,1013.57
2018-07-15T07:35:17.629Z,1013.60
2018-07-15T07:36:17.579Z,1013.61
2018-07-15T07:37:17.579Z,1013.64
2018-07-15T07:38:17.571Z,1013.58
2018-07-15T07:39:17.571Z,1013.57
2018-07-15T07:40:17.576Z,1013.56
2018-07-15T07:41:17.630Z,1013.61
2018-07-15T07:42:17.625Z,1013.54
2018-07-15T07:43:17.577Z,1013.55
2018-07-15T07:44:17.571Z,1013.57
2018-07-15T07:45:17.578Z,1013.52
2018-07-15T07:46:17.578Z,1013.50
2018-07-15T07:47:17.566Z,1013.48
2018-07-15T07:48:17.569Z,1013.58
2018-07-15T07:49:17.568Z,1013.52
2018-07-15T07:50:17.629Z,1013.49
2018-07-15T07:51:17.583Z,1013.45
2018-07-15T07:52:17.555Z,1013.49
2018-07-15T07:53:17.690Z,1013.49
2018-07-15T07:54:17.549Z,1013.48
2018-07-15T07:55:17.544Z,1013.46
2018-07-15T07:56:17.541Z,1013.51
2018-07-15T07:57:17.545Z,1013.47
2018-07-15T07:58:17.530Z,1013.46
2018-07-15T07:59:17.527Z,1013.45
2018-07-15T08:00:17.522Z,1013.45
2018-07-15T08:01:17.533Z,1013.44
2018-07-15T08:02:17.514Z,1013.41
2018-07-15T08:03:17.507Z,1013.60
2018-07-15T08:04:17.501Z,1013.48
2018-07-15T08:05:17.494Z,1013.53
2018-07-15T08:06:17.487Z,1013.50
2018-07-15T08:07:17.481Z,1013.45
2018-07-15T08:08:17.677Z,1013.51
2018-07-15T08:09:17.477Z,1013.43
2018-07-15T08:10:17.463Z,1013.48
2018-07-15T08:11:17.457Z,1013.44
2018-07-15T08:12:17.457Z,1013.50
2018-07-15T08:13:17.455Z,1013.41
2018-07-15T08:14:17.438Z,1013.56
2018-07-15T08:15:17.487Z,1013.55
2018-07-15T08:16:17.427Z,1013.39
2018-07-15T08:17:17.425Z,1013.36
2018-07-15T08:18:17.415Z,1013.37
2018-07-15T08:19:17.414Z,1013.41
2018-07-15T08:20:17.400Z,1013.38
2018-07-15T08:21:17.393Z,1013.37
2018-07-15T08:22:17.389Z,1013.36
2018-07-15T08:23:17.388Z,1013.40
2018-07-15T08:24:17.373Z,1013.37
2018-07-15T08:25:17.368Z,1013.35
2018-07-15T08:26:17.366Z,1013.30
2018-07-15T08:27:17.353Z,1013.28
2018-07-15T08:28:17.371Z,1013.30
2018-07-15T08:29:17.343Z,1013.26
2018-07-15T08:30:17.338Z,1013.37
2018-07-15T08:31:17.339Z,1013.33
2018-07-15T08:32:17.316Z,1013.31
2018-07-15T08:33:17.309Z,1013.34
2018-07-15T08:34:17.300Z,1013.31
2018-07-15T08:35:17.293Z,1013.29
2018-07-15T08:36:17.288Z,1013.32
2018-07-15T08:37:17.277Z,1013.34
2018-07-15T08:38:17.274Z,1013.33
2018-07-15T08:39:17.270Z,1013.22
2018-07-15T08:40:17.266Z,1013.23
2018-07-15T08:41:17.251Z,1013.20
2018-07-15T08:42:17.251Z,1013.24
2018-07-15T08:43:17.234Z,1013.24
2018-07-15T08:44:17.226Z,1013.28
2018-07-15T08:45:17.313Z,1013.31
2018-07-15T08:46:17.204Z,1013.46
2018-07-15T08:47:17.195Z,1013.35
2018-07-15T08:48:17.186Z,1013.32
2018-07-15T08:49:17.178Z,1013.29
2018-07-15T08:50:17.185Z,1013.32
2018-07-15T08:51:17.166Z,1013.35
2018-07-15T08:52:17.154Z,1013.29
2018-07-15T08:53:17.143Z,1013.37
2018-07-15T08:54:17.134Z,1013.35
2018-07-15T08:55:17.125Z,1013.34
2018-07-15T08:56:17.119Z,1013.41
2018-07-15T08:57:17.111Z,1013.45
2018-07-15T08:58:17.108Z,1013.35
2018-07-15T08:59:17.098Z,1013.41
2018-07-15T09:00:17.092Z,1013.40
2018-07-15T09:01:17.084Z,1013.43
2018-07-15T09:02:17.066Z,1013.42
2018-07-15T09:03:17.114Z,1013.40
2018-07-15T09:04:17.054Z,1013.44
2018-07-15T09:05:17.045Z,1013.49
2018-07-15T09:06:17.039Z,1013.44
2018-07-15T09:07:17.034Z,1013.48
2018-07-15T09:08:17.015Z,1013.35
2018-07-15T09:09:17.016Z,1013.70
2018-07-15T09:10:16.999Z,1013.68
2018-07-15T09:11:16.991Z,1013.28
2018-07-15T09:12:16.984Z,1013.72
2018-07-15T09:13:16.979Z,1013.31
2018-07-15T09:14:16.981Z,1013.32
2018-07-15T09:15:16.974Z,1013.41
2018-07-15T09:16:16.970Z,1013.62
2018-07-15T09:17:16.950Z,1013.51
2018-07-15T09:18:16.988Z,1013.34
2018-07-15T09:19:16.936Z,1013.40
2018-07-15T09:20:16.935Z,1013.33
2018-07-15T09:21:16.950Z,1013.31
2018-07-15T09:22:16.918Z,1013.30
2018-07-15T09:25:20.036Z,1013.30
2018-07-15T09:26:20.033Z,1013.31
2018-07-15T09:27:20.027Z,1013.22
2018-07-15T09:28:22.642Z,1013.25
2018-07-15T09:30:04.254Z,1013.26
2018-07-15T09:31:04.202Z,1013.49
2018-07-15T09:32:04.181Z,1013.70
2018-07-15T09:33:04.175Z,1013.20
2018-07-15T09:34:04.176Z,1013.24
2018-07-15T09:35:04.167Z,1013.19
2018-07-15T09:36:04.156Z,1013.17
2018-07-15T09:37:04.159Z,1013.40
2018-07-15T09:38:04.150Z,1013.39
2018-07-15T09:39:04.141Z,1013.50
2018-07-15T09:40:04.140Z,1013.34
2018-07-15T09:41:04.131Z,1013.58
2018-07-15T09:42:04.127Z,1013.54
2018-07-15T09:43:04.128Z,1013.26
2018-07-15T09:44:04.122Z,1013.27
2018-07-15T09:45:04.113Z,1013.19
2018-07-15T09:46:04.106Z,1013.27
2018-07-15T09:47:04.099Z,1013.38
2018-07-15T09:48:04.144Z,1013.45
2018-07-15T09:49:04.089Z,1013.36
2018-07-15T09:50:04.101Z,1013.40
2018-07-15T09:51:04.182Z,1013.31
2018-07-15T09:52:04.090Z,1013.18
2018-07-15T09:53:04.072Z,1013.16
2018-07-15T09:54:04.071Z,1013.16
2018-07-15T09:55:04.077Z,1013.18
2018-07-15T09:56:04.061Z,1013.18
2018-07-15T09:57:04.061Z,1013.16
2018-07-15T09:58:04.051Z,1013.18
2018-07-15T09:59:04.051Z,1013.21
2018-07-15T10:00:04.047Z,1013.19
2018-07-15T10:01:04.052Z,1013.27
2018-07-15T10:02:04.048Z,1013.47
2018-07-15T10:03:04.030Z,1013.24
2018-07-15T10:04:04.025Z,1013.38
2018-07-15T10:05:04.021Z,1013.43
2018-07-15T10:06:04.018Z,1013.37
2018-07-15T10:07:04.013Z,1013.23
2018-07-15T10:08:04.016Z,1013.39
2018-07-15T10:09:04.015Z,1013.31
2018-07-15T10:10:03.999Z,1013.39
2018-07-15T10:11:04.007Z,1013.47
2018-07-15T10:12:03.993Z,1013.42
2018-07-15T10:13:03.997Z,1013.33
2018-07-15T10:14:03.994Z,1013.33
2018-07-15T10:15:03.993Z,1013.33
2018-07-15T10:16:04.001Z,1013.33
2018-07-15T10:17:03.983Z,1013.36
2018-07-15T10:18:03.990Z,1013.28
2018-07-15T10:19:04.056Z,1013.25
2018-07-15T10:20:03.996Z,1013.22
2018-07-15T10:21:04.005Z,1013.20
2018-07-15T10:22:03.991Z,1013.22
2018-07-15T10:23:03.992Z,1013.21
2018-07-15T10:24:03.987Z,1013.17
2018-07-15T10:25:03.996Z,1013.17
2018-07-15T10:26:03.990Z,1013.16
2018-07-15T10:27:03.996Z,1013.21
2018-07-15T10:28:03.994Z,1013.12
2018-07-15T10:29:04.008Z,1013.10
2018-07-15T10:30:04.018Z,1013.08
2018-07-15T10:31:04.011Z,1013.04
2018-07-15T10:32:04.011Z,1013.01
2018-07-15T10:33:04.023Z,1012.99
2018-07-15T10:34:04.028Z,1012.98
2018-07-15T10:35:04.174Z,1012.94
2018-07-15T10:36:04.035Z,1012.94
2018-07-15T10:37:04.034Z,1012.95
2018-07-15T10:38:04.050Z,1012.93
2018-07-15T10:39:04.064Z,1012.90
2018-07-15T10:40:04.063Z,1012.87
2018-07-15T10:41:04.063Z,1012.83
2018-07-15T10:42:04.067Z,1012.82
2018-07-15T10:43:04.071Z,1012.75
2018-07-15T10:44:04.082Z,1012.79
2018-07-15T10:45:04.079Z,1012.76
2018-07-15T10:46:04.085Z,1012.67
2018-07-15T10:47:04.098Z,1012.68
2018-07-15T10:48:04.097Z,1012.67
2018-07-15T10:49:04.100Z,1012.63
2018-07-15T10:50:04.124Z,1012.59
2018-07-15T10:51:04.112Z,1012.54
2018-07-15T10:52:04.127Z,1012.53
2018-07-15T10:53:04.125Z,1012.50
2018-07-15T10:54:04.129Z,1012.51
2018-07-15T10:55:04.150Z,1012.48
2018-07-15T10:56:04.145Z,1012.40
2018-07-15T10:57:04.145Z,1012.45
2018-07-15T10:58:04.161Z,1012.49
2018-07-15T10:59:04.159Z,1012.41
2018-07-15T11:00:04.162Z,1012.42
2018-07-15T11:01:04.227Z,1012.42
2018-07-15T11:02:04.174Z,1012.31
2018-07-15T11:03:04.183Z,1012.29
2018-07-15T11:04:04.187Z,1012.30
2018-07-15T11:05:04.190Z,1012.34
2018-07-15T11:06:04.198Z,1012.27
2018-07-15T11:07:04.199Z,1012.31
2018-07-15T11:08:04.209Z,1012.41
2018-07-15T11:09:04.229Z,1012.39
2018-07-15T11:10:04.218Z,1012.33
2018-07-15T11:11:04.221Z,1012.37
2018-07-15T11:12:04.238Z,1012.36
2018-07-15T11:13:04.236Z,1012.42
2018-07-15T11:14:04.248Z,1012.53
2018-07-15T11:15:04.243Z,1012.45
2018-07-15T11:16:04.258Z,1012.47
2018-07-15T11:17:04.254Z,1012.52
2018-07-15T11:18:04.264Z,1012.47
2018-07-15T11:19:04.267Z,1012.43
2018-07-15T11:20:04.273Z,1012.46
2018-07-15T11:21:04.282Z,1012.60
2018-07-15T11:22:04.294Z,1012.57
2018-07-15T11:23:04.298Z,1012.54
2018-07-15T11:24:04.297Z,1012.61
2018-07-15T11:25:04.309Z,1012.65
2018-07-15T11:26:04.425Z,1012.70
2018-07-15T11:27:04.315Z,1012.78
2018-07-15T11:28:04.323Z,1012.82
2018-07-15T11:29:04.335Z,1012.90
2018-07-15T11:30:04.335Z,1012.83
2018-07-15T11:31:04.507Z,1012.92
2018-07-15T11:32:04.349Z,1013.03
2018-07-15T11:33:04.357Z,1012.94
2018-07-15T11:34:04.362Z,1012.96
2018-07-15T11:35:04.375Z,1013.12
2018-07-15T11:36:04.373Z,1013.17
2018-07-15T11:37:04.376Z,1013.15
2018-07-15T11:38:04.393Z,1013.15
2018-07-15T11:39:04.467Z,1013.15
2018-07-15T11:40:04.394Z,1013.24
2018-07-15T11:41:04.421Z,1013.37
2018-07-15T11:42:04.409Z,1013.36
2018-07-15T11:43:04.410Z,1013.30
2018-07-15T11:44:04.419Z,1013.37
2018-07-15T11:45:04.434Z,1013.49
2018-07-15T11:46:04.438Z,1013.59
2018-07-15T11:47:04.433Z,1013.44
2018-07-15T11:48:04.468Z,1013.51
2018-07-15T11:49:04.445Z,1013.86
2018-07-15T11:50:04.440Z,1013.77
2018-07-15T11:51:04.450Z,1013.04
2018-07-15T11:52:04.458Z,1012.51
2018-07-15T11:53:04.461Z,1012.45
2018-07-15T11:54:04.455Z,1012.37
2018-07-15T11:55:04.454Z,1012.37
2018-07-15T11:56:04.461Z,1012.40
2018-07-15T11:57:04.459Z,1012.37
2018-07-15T11:58:04.467Z,1012.29
2018-07-15T11:59:04.471Z,1012.31
2018-07-15T12:00:04.462Z,1012.25
2018-07-15T12:01:04.465Z,1012.22
2018-07-15T12:02:04.464Z,1012.27
2018-07-15T12:03:04.469Z,1012.23
2018-07-15T12:04:07.097Z,1012.29
2018-07-15T12:05:04.461Z,1012.26
2018-07-15T12:06:04.465Z,1012.24
2018-07-15T12:07:04.465Z,1012.19
2018-07-15T12:08:04.453Z,1012.20